Terminal Aerodrome Forecast
Issued by NWS St Louis, MO

Home | Current Version | Previous Version | Text Only | Print | Product List | Glossary On
Versions: 1 2 3 4 5 6 7 8 9 10 11 12 13 14 15 16 17 18 19 20 21 22 23 24
000
FTUS43 KLSX 230300 AAB
TAFSTL
TAF AMD
KSTL 230300Z 2303/2406 20008KT P6SM FEW100 SCT150 BKN250
     FM230600 14005KT 6SM -TSRA BKN040CB
     FM230800 11005KT P6SM SCT040 BKN120
     FM231000 31005KT P6SM BKN030
     FM231500 01010KT P6SM SCT040
     FM240100 04006KT P6SM SKC=

USA.gov is the U.S. government's official web portal to all federal, state and local government web resources and services.